sensor_id;sensor_type;location;lat;lon;timestamp;pressure;altitude;pressure_sealevel;temperature;humidity
40920;BME280;26652;50.280;19.026;2023-03-16T00:01:09;98508.44;;;2.77;77.27
40920;BME280;26652;50.280;19.026;2023-03-16T00:03:39;98509.16;;;2.58;78.07
40920;BME280;26652;50.280;19.026;2023-03-16T00:05:55;98513.72;;;2.74;77.81
40920;BME280;26652;50.280;19.026;2023-03-16T00:08:13;98512.78;;;2.75;77.61
40920;BME280;26652;50.280;19.026;2023-03-16T00:10:18;98509.31;;;2.66;77.99
40920;BME280;26652;50.280;19.026;2023-03-16T00:12:32;98503.25;;;2.69;78.17
40920;BME280;26652;50.280;19.026;2023-03-16T00:14:41;98510.44;;;2.83;77.57
40920;BME280;26652;50.280;19.026;2023-03-16T00:16:56;98513.41;;;2.67;77.91
40920;BME280;26652;50.280;19.026;2023-03-16T00:19:09;98500.50;;;2.51;78.47
40920;BME280;26652;50.280;19.026;2023-03-16T00:21:20;98509.16;;;2.58;78.61
40920;BME280;26652;50.280;19.026;2023-03-16T00:23:28;98519.62;;;2.63;78.63
40920;BME280;26652;50.280;19.026;2023-03-16T00:25:45;98509.56;;;2.63;78.34
40920;BME280;26652;50.280;19.026;2023-03-16T00:27:56;98514.59;;;2.63;78.66
40920;BME280;26652;50.280;19.026;2023-03-16T00:30:18;98515.09;;;2.57;78.92
40920;BME280;26652;50.280;19.026;2023-03-16T00:32:34;98516.25;;;2.53;79.00
40920;BME280;26652;50.280;19.026;2023-03-16T00:34:48;98516.56;;;2.59;78.92
40920;BME280;26652;50.280;19.026;2023-03-16T00:36:59;98514.72;;;2.41;79.66
40920;BME280;26652;50.280;19.026;2023-03-16T00:39:17;98521.09;;;2.24;80.15
40920;BME280;26652;50.280;19.026;2023-03-16T00:41:25;98519.56;;;2.33;80.71
40920;BME280;26652;50.280;19.026;2023-03-16T00:43:39;98515.34;;;2.54;79.92
40920;BME280;26652;50.280;19.026;2023-03-16T00:45:56;98512.16;;;2.52;79.74
40920;BME280;26652;50.280;19.026;2023-03-16T00:48:07;98517.47;;;2.58;79.33
40920;BME280;26652;50.280;19.026;2023-03-16T00:50:16;98514.37;;;2.45;79.97
40920;BME280;26652;50.280;19.026;2023-03-16T00:52:34;98516.81;;;2.36;80.06
40920;BME280;26652;50.280;19.026;2023-03-16T00:54:45;98520.94;;;2.37;80.41
40920;BME280;26652;50.280;19.026;2023-03-16T00:57:00;98508.38;;;2.37;80.51
40920;BME280;26652;50.280;19.026;2023-03-16T00:59:06;98508.66;;;2.43;80.18
40920;BME280;26652;50.280;19.026;2023-03-16T01:01:25;98519.34;;;2.36;80.65
40920;BME280;26652;50.280;19.026;2023-03-16T01:03:35;98522.16;;;2.42;80.52
40920;BME280;26652;50.280;19.026;2023-03-16T01:05:53;98520.81;;;2.38;80.69
40920;BME280;26652;50.280;19.026;2023-03-16T01:08:13;98522.50;;;2.38;80.41
40920;BME280;26652;50.280;19.026;2023-03-16T01:10:25;98526.69;;;2.48;80.35
40920;BME280;26652;50.280;19.026;2023-03-16T01:12:34;98520.69;;;2.40;80.31
40920;BME280;26652;50.280;19.026;2023-03-16T01:14:46;98522.81;;;2.44;80.00
40920;BME280;26652;50.280;19.026;2023-03-16T01:16:56;98523.63;;;2.45;79.68
40920;BME280;26652;50.280;19.026;2023-03-16T01:19:09;98508.44;;;2.25;80.40
40920;BME280;26652;50.280;19.026;2023-03-16T01:21:18;98517.19;;;2.31;80.83
40920;BME280;26652;50.280;19.026;2023-03-16T01:23:30;98526.12;;;2.45;80.38
40920;BME280;26652;50.280;19.026;2023-03-16T01:25:39;98525.41;;;2.33;79.90
40920;BME280;26652;50.280;19.026;2023-03-16T01:28:02;98523.44;;;2.16;80.65
40920;BME280;26652;50.280;19.026;2023-03-16T01:30:12;98539.78;;;2.31;81.11
40920;BME280;26652;50.280;19.026;2023-03-16T01:32:24;98531.59;;;2.29;81.17
40920;BME280;26652;50.280;19.026;2023-03-16T01:34:33;98533.66;;;2.24;81.37
40920;BME280;26652;50.280;19.026;2023-03-16T01:36:46;98533.66;;;2.24;81.86
40920;BME280;26652;50.280;19.026;2023-03-16T01:38:52;98532.25;;;2.10;82.03
40920;BME280;26652;50.280;19.026;2023-03-16T01:41:06;98533.03;;;1.90;83.02
40920;BME280;26652;50.280;19.026;2023-03-16T01:43:12;98540.06;;;2.07;83.09
40920;BME280;26652;50.280;19.026;2023-03-16T01:48:07;98544.56;;;2.13;82.95
40920;BME280;26652;50.280;19.026;2023-03-16T01:50:30;98531.44;;;2.10;82.90
40920;BME280;26652;50.280;19.026;2023-03-16T01:52:39;98536.41;;;2.21;82.64
40920;BME280;26652;50.280;19.026;2023-03-16T01:55:03;98536.84;;;2.05;82.73
40920;BME280;26652;50.280;19.026;2023-03-16T01:57:19;98539.09;;;2.08;83.21
40920;BME280;26652;50.280;19.026;2023-03-16T01:59:36;98540.75;;;2.19;82.42
40920;BME280;26652;50.280;19.026;2023-03-16T02:01:43;98542.53;;;2.28;82.14
40920;BME280;26652;50.280;19.026;2023-03-16T02:04:01;98546.09;;;2.25;81.91
40920;BME280;26652;50.280;19.026;2023-03-16T02:06:15;98548.28;;;2.19;82.17
40920;BME280;26652;50.280;19.026;2023-03-16T02:08:27;98550.44;;;2.03;83.06
40920;BME280;26652;50.280;19.026;2023-03-16T02:10:33;98548.53;;;1.95;83.70
40920;BME280;26652;50.280;19.026;2023-03-16T02:12:42;98546.47;;;2.00;83.27
40920;BME280;26652;50.280;19.026;2023-03-16T02:14:50;98556.88;;;2.16;83.10
40920;BME280;26652;50.280;19.026;2023-03-16T02:16:58;98547.88;;;2.14;82.77
40920;BME280;26652;50.280;19.026;2023-03-16T02:21:49;98555.81;;;2.19;82.92
40920;BME280;26652;50.280;19.026;2023-03-16T02:24:01;98554.00;;;2.21;82.45
40920;BME280;26652;50.280;19.026;2023-03-16T02:31:23;98567.03;;;1.94;83.26
40920;BME280;26652;50.280;19.026;2023-03-16T02:33:33;98573.09;;;2.12;82.50
40920;BME280;26652;50.280;19.026;2023-03-16T02:35:43;98574.00;;;2.11;82.43
40920;BME280;26652;50.280;19.026;2023-03-16T02:37:57;98575.78;;;2.00;82.64
40920;BME280;26652;50.280;19.026;2023-03-16T02:40:23;98579.41;;;2.07;82.01
40920;BME280;26652;50.280;19.026;2023-03-16T02:42:29;98592.91;;;1.94;82.40
40920;BME280;26652;50.280;19.026;2023-03-16T02:44:38;98595.91;;;2.09;82.30
40920;BME280;26652;50.280;19.026;2023-03-16T02:46:48;98595.69;;;2.12;82.09
40920;BME280;26652;50.280;19.026;2023-03-16T02:49:32;98605.16;;;2.09;82.04
40920;BME280;26652;50.280;19.026;2023-03-16T02:51:49;98602.06;;;2.16;81.78
40920;BME280;26652;50.280;19.026;2023-03-16T02:54:06;98601.22;;;2.06;81.96
40920;BME280;26652;50.280;19.026;2023-03-16T02:56:20;98603.69;;;1.74;83.09
40920;BME280;26652;50.280;19.026;2023-03-16T02:58:31;98607.28;;;1.92;82.96
40920;BME280;26652;50.280;19.026;2023-03-16T03:00:50;98607.88;;;1.85;83.05
40920;BME280;26652;50.280;19.026;2023-03-16T03:03:05;98609.81;;;1.92;82.37
40920;BME280;26652;50.280;19.026;2023-03-16T03:05:14;98623.72;;;1.96;82.34
40920;BME280;26652;50.280;19.026;2023-03-16T03:07:28;98625.31;;;1.98;82.79
40920;BME280;26652;50.280;19.026;2023-03-16T03:09:42;98609.06;;;1.70;82.87
40920;BME280;26652;50.280;19.026;2023-03-16T03:11:57;98612.69;;;1.77;83.46
40920;BME280;26652;50.280;19.026;2023-03-16T03:14:02;98622.63;;;1.67;83.64
40920;BME280;26652;50.280;19.026;2023-03-16T03:16:15;98622.53;;;1.57;84.22
40920;BME280;26652;50.280;19.026;2023-03-16T03:18:21;98629.34;;;1.67;84.79
40920;BME280;26652;50.280;19.026;2023-03-16T03:20:33;98626.94;;;1.76;84.40
40920;BME280;26652;50.280;19.026;2023-03-16T03:22:40;98625.16;;;1.56;85.27
40920;BME280;26652;50.280;19.026;2023-03-16T03:24:56;98627.66;;;1.56;85.40
40920;BME280;26652;50.280;19.026;2023-03-16T03:27:05;98624.31;;;1.78;84.94
40920;BME280;26652;50.280;19.026;2023-03-16T03:29:19;98636.03;;;1.88;84.10
40920;BME280;26652;50.280;19.026;2023-03-16T03:31:32;98639.38;;;1.78;84.27
40920;BME280;26652;50.280;19.026;2023-03-16T03:33:42;98631.53;;;1.60;84.57
40920;BME280;26652;50.280;19.026;2023-03-16T03:35:57;98639.75;;;1.51;84.99
40920;BME280;26652;50.280;19.026;2023-03-16T03:38:06;98634.84;;;1.60;85.27
40920;BME280;26652;50.280;19.026;2023-03-16T03:40:14;98640.06;;;1.69;84.52
40920;BME280;26652;50.280;19.026;2023-03-16T03:42:23;98646.78;;;1.79;83.95
40920;BME280;26652;50.280;19.026;2023-03-16T03:44:31;98640.97;;;1.79;83.42
40920;BME280;26652;50.280;19.026;2023-03-16T03:46:47;98658.50;;;1.90;83.10
40920;BME280;26652;50.280;19.026;2023-03-16T03:48:54;98650.75;;;1.93;82.70
40920;BME280;26652;50.280;19.026;2023-03-16T03:51:17;98653.50;;;1.90;82.90
40920;BME280;26652;50.280;19.026;2023-03-16T03:53:32;98655.22;;;1.89;82.87
40920;BME280;26652;50.280;19.026;2023-03-16T03:55:55;98659.91;;;1.83;82.97
40920;BME280;26652;50.280;19.026;2023-03-16T03:58:04;98666.03;;;1.90;82.83
40920;BME280;26652;50.280;19.026;2023-03-16T04:00:20;98661.38;;;1.85;82.99
40920;BME280;26652;50.280;19.026;2023-03-16T04:02:27;98660.37;;;1.66;84.59
40920;BME280;26652;50.280;19.026;2023-03-16T04:04:41;98651.94;;;1.44;85.73
40920;BME280;26652;50.280;19.026;2023-03-16T04:06:46;98670.28;;;1.56;85.28
40920;BME280;26652;50.280;19.026;2023-03-16T04:08:58;98673.13;;;1.62;84.88
40920;BME280;26652;50.280;19.026;2023-03-16T04:11:19;98679.97;;;1.49;85.21
40920;BME280;26652;50.280;19.026;2023-03-16T04:13:30;98668.91;;;1.29;85.97
40920;BME280;26652;50.280;19.026;2023-03-16T04:15:44;98674.03;;;1.28;86.63
40920;BME280;26652;50.280;19.026;2023-03-16T04:17:53;98671.06;;;1.23;87.34
40920;BME280;26652;50.280;19.026;2023-03-16T04:20:09;98670.84;;;1.26;87.55
40920;BME280;26652;50.280;19.026;2023-03-16T04:22:21;98670.50;;;1.19;86.74
40920;BME280;26652;50.280;19.026;2023-03-16T04:24:37;98678.25;;;1.16;87.52
40920;BME280;26652;50.280;19.026;2023-03-16T04:26:50;98668.19;;;1.05;88.59
40920;BME280;26652;50.280;19.026;2023-03-16T04:28:58;98685.84;;;0.92;90.18
40920;BME280;26652;50.280;19.026;2023-03-16T04:31:15;98683.00;;;1.08;89.83
40920;BME280;26652;50.280;19.026;2023-03-16T04:33:24;98673.56;;;1.12;88.77
40920;BME280;26652;50.280;19.026;2023-03-16T04:35:39;98682.78;;;1.11;88.74
40920;BME280;26652;50.280;19.026;2023-03-16T04:37:49;98693.53;;;1.36;88.08
40920;BME280;26652;50.280;19.026;2023-03-16T04:40:00;98690.09;;;1.25;88.26
40920;BME280;26652;50.280;19.026;2023-03-16T04:42:18;98686.47;;;1.29;88.25
40920;BME280;26652;50.280;19.026;2023-03-16T04:44:30;98687.38;;;1.28;88.24
40920;BME280;26652;50.280;19.026;2023-03-16T04:46:50;98688.84;;;1.20;88.46
40920;BME280;26652;50.280;19.026;2023-03-16T04:49:04;98690.31;;;1.00;89.96
40920;BME280;26652;50.280;19.026;2023-03-16T04:51:20;98690.09;;;1.03;90.53
40920;BME280;26652;50.280;19.026;2023-03-16T04:53:40;98692.72;;;1.02;90.70
40920;BME280;26652;50.280;19.026;2023-03-16T04:55:53;98684.47;;;0.88;90.61
40920;BME280;26652;50.280;19.026;2023-03-16T04:58:13;98691.19;;;0.88;91.58
40920;BME280;26652;50.280;19.026;2023-03-16T05:00:35;98690.97;;;0.91;91.37
40920;BME280;26652;50.280;19.026;2023-03-16T05:02:57;98696.31;;;0.86;91.32
40920;BME280;26652;50.280;19.026;2023-03-16T05:05:06;98692.78;;;0.54;92.54
40920;BME280;26652;50.280;19.026;2023-03-16T05:07:19;98704.34;;;0.44;93.25
40920;BME280;26652;50.280;19.026;2023-03-16T05:09:34;98710.16;;;0.44;94.69
40920;BME280;26652;50.280;19.026;2023-03-16T05:12:03;98705.87;;;0.33;95.80
40920;BME280;26652;50.280;19.026;2023-03-16T05:14:09;98713.84;;;0.51;95.76
40920;BME280;26652;50.280;19.026;2023-03-16T05:16:22;98714.03;;;0.48;95.64
40920;BME280;26652;50.280;19.026;2023-03-16T05:18:32;98714.09;;;0.59;94.93
40920;BME280;26652;50.280;19.026;2023-03-16T05:20:51;98720.28;;;0.67;94.33
40920;BME280;26652;50.280;19.026;2023-03-16T05:22:58;98715.25;;;0.67;94.33
40920;BME280;26652;50.280;19.026;2023-03-16T05:25:11;98716.50;;;0.61;94.09
40920;BME280;26652;50.280;19.026;2023-03-16T05:27:18;98716.16;;;0.65;94.11
40920;BME280;26652;50.280;19.026;2023-03-16T05:29:31;98719.53;;;0.53;94.09
40920;BME280;26652;50.280;19.026;2023-03-16T05:31:43;98719.06;;;0.48;95.60
40920;BME280;26652;50.280;19.026;2023-03-16T05:34:01;98733.06;;;0.51;95.79
40920;BME280;26652;50.280;19.026;2023-03-16T05:36:19;98725.75;;;0.48;96.37
40920;BME280;26652;50.280;19.026;2023-03-16T05:38:28;98737.00;;;0.66;95.22
40920;BME280;26652;50.280;19.026;2023-03-16T05:40:34;98737.75;;;0.79;94.29
40920;BME280;26652;50.280;19.026;2023-03-16T05:42:48;98740.03;;;0.82;93.84
40920;BME280;26652;50.280;19.026;2023-03-16T05:44:53;98747.53;;;0.82;92.70
40920;BME280;26652;50.280;19.026;2023-03-16T05:47:04;98736.50;;;0.85;92.28
40920;BME280;26652;50.280;19.026;2023-03-16T05:49:10;98744.03;;;0.85;92.82
40920;BME280;26652;50.280;19.026;2023-03-16T05:51:22;98740.84;;;0.83;93.61
40920;BME280;26652;50.280;19.026;2023-03-16T05:53:39;98741.19;;;0.89;94.15
40920;BME280;26652;50.280;19.026;2023-03-16T05:55:52;98741.75;;;0.82;94.44
40920;BME280;26652;50.280;19.026;2023-03-16T05:57:58;98746.31;;;0.88;94.58
40920;BME280;26652;50.280;19.026;2023-03-16T06:00:12;98743.63;;;1.13;94.31
40920;BME280;26652;50.280;19.026;2023-03-16T06:02:27;98749.44;;;1.03;93.87
40920;BME280;26652;50.280;19.026;2023-03-16T06:04:48;98742.25;;;1.09;94.54
40920;BME280;26652;50.280;19.026;2023-03-16T06:06:58;98746.53;;;1.31;93.43
40920;BME280;26652;50.280;19.026;2023-03-16T06:09:26;98753.78;;;1.23;93.60
40920;BME280;26652;50.280;19.026;2023-03-16T06:11:34;98764.50;;;1.25;93.98
40920;BME280;26652;50.280;19.026;2023-03-16T06:13:56;98764.06;;;1.31;94.31
40920;BME280;26652;50.280;19.026;2023-03-16T06:16:10;98777.66;;;1.40;93.72
40920;BME280;26652;50.280;19.026;2023-03-16T06:18:33;98779.06;;;1.77;93.68
40920;BME280;26652;50.280;19.026;2023-03-16T06:20:42;98785.72;;;2.55;90.10
40920;BME280;26652;50.280;19.026;2023-03-16T06:23:10;98790.19;;;3.57;83.11
40920;BME280;26652;50.280;19.026;2023-03-16T06:25:23;98794.91;;;4.71;76.76
40920;BME280;26652;50.280;19.026;2023-03-16T06:27:40;98797.13;;;6.07;70.32
40920;BME280;26652;50.280;19.026;2023-03-16T06:29:46;98798.66;;;6.99;65.61
40920;BME280;26652;50.280;19.026;2023-03-16T06:32:02;98803.03;;;7.58;62.94
40920;BME280;26652;50.280;19.026;2023-03-16T06:34:17;98808.06;;;7.50;60.75
40920;BME280;26652;50.280;19.026;2023-03-16T06:36:41;98811.53;;;7.75;60.23
40920;BME280;26652;50.280;19.026;2023-03-16T06:38:50;98820.41;;;8.05;59.51
40920;BME280;26652;50.280;19.026;2023-03-16T06:41:13;98830.66;;;8.29;58.03
40920;BME280;26652;50.280;19.026;2023-03-16T06:43:20;98832.44;;;9.03;56.63
40920;BME280;26652;50.280;19.026;2023-03-16T06:45:52;98826.84;;;9.57;55.22
40920;BME280;26652;50.280;19.026;2023-03-16T06:47:59;98823.84;;;10.08;54.00
40920;BME280;26652;50.280;19.026;2023-03-16T06:50:17;98830.88;;;10.45;52.36
40920;BME280;26652;50.280;19.026;2023-03-16T06:52:33;98826.44;;;10.70;51.89
40920;BME280;26652;50.280;19.026;2023-03-16T06:55:00;98826.13;;;10.96;51.38
40920;BME280;26652;50.280;19.026;2023-03-16T06:57:12;98840.47;;;11.87;48.87
40920;BME280;26652;50.280;19.026;2023-03-16T06:59:46;98839.06;;;11.85;49.09
40920;BME280;26652;50.280;19.026;2023-03-16T07:02:01;98847.81;;;13.34;46.63
40920;BME280;26652;50.280;19.026;2023-03-16T07:04:28;98845.47;;;12.97;46.49
40920;BME280;26652;50.280;19.026;2023-03-16T07:06:46;98849.03;;;13.73;45.08
40920;BME280;26652;50.280;19.026;2023-03-16T07:09:04;98842.75;;;14.45;44.57
40920;BME280;26652;50.280;19.026;2023-03-16T07:11:27;98847.63;;;14.39;43.16
40920;BME280;26652;50.280;19.026;2023-03-16T07:14:01;98854.81;;;14.16;43.83
40920;BME280;26652;50.280;19.026;2023-03-16T07:16:23;98861.12;;;13.08;44.25
40920;BME280;26652;50.280;19.026;2023-03-16T07:18:39;98860.63;;;12.98;45.91
40920;BME280;26652;50.280;19.026;2023-03-16T07:21:05;98857.81;;;12.93;45.85
40920;BME280;26652;50.280;19.026;2023-03-16T07:23:30;98862.38;;;12.26;46.57
40920;BME280;26652;50.280;19.026;2023-03-16T07:26:02;98861.09;;;11.25;48.53
40920;BME280;26652;50.280;19.026;2023-03-16T07:28:38;98857.97;;;10.38;50.47
40920;BME280;26652;50.280;19.026;2023-03-16T07:30:47;98851.28;;;10.37;50.88
40920;BME280;26652;50.280;19.026;2023-03-16T07:32:59;98850.03;;;9.13;52.64
40920;BME280;26652;50.280;19.026;2023-03-16T07:35:09;98846.34;;;8.75;54.80
40920;BME280;26652;50.280;19.026;2023-03-16T07:37:20;98859.78;;;8.67;55.41
40920;BME280;26652;50.280;19.026;2023-03-16T07:39:36;98856.06;;;8.45;55.82
40920;BME280;26652;50.280;19.026;2023-03-16T07:42:08;98852.78;;;8.19;56.66
40920;BME280;26652;50.280;19.026;2023-03-16T07:44:15;98851.03;;;7.42;59.08
40920;BME280;26652;50.280;19.026;2023-03-16T07:46:34;98857.97;;;7.83;59.38
40920;BME280;26652;50.280;19.026;2023-03-16T07:48:44;98859.47;;;7.94;57.83
40920;BME280;26652;50.280;19.026;2023-03-16T07:50:59;98855.00;;;7.62;58.76
40920;BME280;26652;50.280;19.026;2023-03-16T07:53:08;98853.69;;;7.58;59.36
40920;BME280;26652;50.280;19.026;2023-03-16T07:55:42;98855.31;;;7.41;58.43
40920;BME280;26652;50.280;19.026;2023-03-16T07:57:48;98850.34;;;7.75;59.98
40920;BME280;26652;50.280;19.026;2023-03-16T07:59:59;98846.47;;;7.19;60.12
40920;BME280;26652;50.280;19.026;2023-03-16T08:02:17;98841.97;;;6.96;61.43
40920;BME280;26652;50.280;19.026;2023-03-16T08:04:31;98862.94;;;7.06;61.15
40920;BME280;26652;50.280;19.026;2023-03-16T08:06:57;98867.66;;;7.01;62.95
40920;BME280;26652;50.280;19.026;2023-03-16T08:09:10;98863.59;;;6.90;61.73
40920;BME280;26652;50.280;19.026;2023-03-16T08:11:29;98865.19;;;7.09;61.27
40920;BME280;26652;50.280;19.026;2023-03-16T08:13:44;98858.63;;;7.16;60.28
40920;BME280;26652;50.280;19.026;2023-03-16T08:16:01;98863.81;;;7.14;60.27
40920;BME280;26652;50.280;19.026;2023-03-16T08:18:40;98877.56;;;7.12;61.47
40920;BME280;26652;50.280;19.026;2023-03-16T08:20:58;98869.31;;;6.92;61.59
40920;BME280;26652;50.280;19.026;2023-03-16T08:23:12;98868.34;;;6.20;61.93
40920;BME280;26652;50.280;19.026;2023-03-16T08:25:22;98879.47;;;5.90;64.63
40920;BME280;26652;50.280;19.026;2023-03-16T08:27:42;98874.66;;;6.34;64.52
40920;BME280;26652;50.280;19.026;2023-03-16T08:29:53;98870.81;;;6.57;62.64
40920;BME280;26652;50.280;19.026;2023-03-16T08:32:13;98889.09;;;7.50;60.06
40920;BME280;26652;50.280;19.026;2023-03-16T08:34:28;98877.41;;;7.75;58.97
40920;BME280;26652;50.280;19.026;2023-03-16T08:36:50;98884.56;;;8.05;56.82
40920;BME280;26652;50.280;19.026;2023-03-16T08:38:59;98888.37;;;8.35;57.37
40920;BME280;26652;50.280;19.026;2023-03-16T08:41:20;98894.34;;;8.60;56.19
40920;BME280;26652;50.280;19.026;2023-03-16T08:43:31;98893.59;;;8.68;55.77
40920;BME280;26652;50.280;19.026;2023-03-16T08:45:46;98887.19;;;9.71;53.00
40920;BME280;26652;50.280;19.026;2023-03-16T08:47:52;98899.56;;;9.58;54.04
40920;BME280;26652;50.280;19.026;2023-03-16T08:50:08;98892.19;;;10.11;52.56
40920;BME280;26652;50.280;19.026;2023-03-16T08:52:15;98898.16;;;10.82;51.57
40920;BME280;26652;50.280;19.026;2023-03-16T08:54:37;98903.06;;;10.84;50.26
40920;BME280;26652;50.280;19.026;2023-03-16T08:56:48;98908.00;;;11.54;50.18
40920;BME280;26652;50.280;19.026;2023-03-16T08:59:02;98898.06;;;10.98;49.36
40920;BME280;26652;50.280;19.026;2023-03-16T09:01:19;98898.09;;;10.90;49.09
40920;BME280;26652;50.280;19.026;2023-03-16T09:03:40;98899.00;;;10.66;49.09
40920;BME280;26652;50.280;19.026;2023-03-16T09:05:52;98900.44;;;11.00;50.54
40920;BME280;26652;50.280;19.026;2023-03-16T09:08:27;98903.84;;;11.38;48.14
40920;BME280;26652;50.280;19.026;2023-03-16T09:10:41;98912.25;;;10.62;48.38
40920;BME280;26652;50.280;19.026;2023-03-16T09:12:56;98905.69;;;10.67;50.35
40920;BME280;26652;50.280;19.026;2023-03-16T09:15:11;98915.09;;;10.67;49.56
40920;BME280;26652;50.280;19.026;2023-03-16T09:17:23;98905.78;;;10.43;49.59
40920;BME280;26652;50.280;19.026;2023-03-16T09:19:32;98912.25;;;9.98;49.79
40920;BME280;26652;50.280;19.026;2023-03-16T09:21:44;98919.75;;;9.59;50.96
40920;BME280;26652;50.280;19.026;2023-03-16T09:23:57;98922.75;;;9.46;51.60
40920;BME280;26652;50.280;19.026;2023-03-16T09:26:11;98914.16;;;9.15;52.58
40920;BME280;26652;50.280;19.026;2023-03-16T09:28:18;98916.63;;;8.82;51.86
40920;BME280;26652;50.280;19.026;2023-03-16T09:30:34;98915.12;;;8.64;53.95
40920;BME280;26652;50.280;19.026;2023-03-16T09:32:42;98905.50;;;8.75;52.74
40920;BME280;26652;50.280;19.026;2023-03-16T09:35:02;98912.38;;;8.91;53.90
40920;BME280;26652;50.280;19.026;2023-03-16T09:37:12;98908.06;;;8.83;51.60
40920;BME280;26652;50.280;19.026;2023-03-16T09:39:27;98917.44;;;8.91;52.83
40920;BME280;26652;50.280;19.026;2023-03-16T09:42:18;98913.22;;;9.08;51.77
40920;BME280;26652;50.280;19.026;2023-03-16T09:46:57;98915.75;;;9.08;53.32
40920;BME280;26652;50.280;19.026;2023-03-16T09:49:11;98911.44;;;9.00;50.93
40920;BME280;26652;50.280;19.026;2023-03-16T09:51:42;98918.19;;;8.41;52.78
40920;BME280;26652;50.280;19.026;2023-03-16T09:53:58;98912.97;;;8.43;53.95
40920;BME280;26652;50.280;19.026;2023-03-16T09:56:29;98924.47;;;8.29;53.23
40920;BME280;26652;50.280;19.026;2023-03-16T09:58:39;98920.81;;;8.58;53.86
40920;BME280;26652;50.280;19.026;2023-03-16T10:01:19;98921.63;;;8.32;54.01
40920;BME280;26652;50.280;19.026;2023-03-16T10:06:08;98922.81;;;8.46;52.37
40920;BME280;26652;50.280;19.026;2023-03-16T10:08:44;98922.69;;;8.90;52.52
40920;BME280;26652;50.280;19.026;2023-03-16T10:13:42;98929.19;;;10.77;47.57
40920;BME280;26652;50.280;19.026;2023-03-16T10:15:51;98936.41;;;9.54;48.38
40920;BME280;26652;50.280;19.026;2023-03-16T10:18:13;98942.16;;;9.88;49.57
40920;BME280;26652;50.280;19.026;2023-03-16T10:20:24;98946.97;;;10.46;47.91
40920;BME280;26652;50.280;19.026;2023-03-16T10:22:46;98940.87;;;10.64;47.33
40920;BME280;26652;50.280;19.026;2023-03-16T10:27:34;98948.31;;;9.29;47.18
40920;BME280;26652;50.280;19.026;2023-03-16T10:29:52;98952.47;;;9.62;47.31
40920;BME280;26652;50.280;19.026;2023-03-16T10:32:14;98951.50;;;10.04;46.67
40920;BME280;26652;50.280;19.026;2023-03-16T10:34:25;98947.69;;;10.08;46.83
40920;BME280;26652;50.280;19.026;2023-03-16T10:36:43;98947.38;;;10.11;47.05
40920;BME280;26652;50.280;19.026;2023-03-16T10:39:03;98946.25;;;10.69;46.51
40920;BME280;26652;50.280;19.026;2023-03-16T10:41:32;98941.97;;;10.69;44.73
40920;BME280;26652;50.280;19.026;2023-03-16T10:43:44;98947.38;;;9.70;46.26
40920;BME280;26652;50.280;19.026;2023-03-16T10:46:00;98945.47;;;9.89;46.46
40920;BME280;26652;50.280;19.026;2023-03-16T10:48:17;98937.53;;;9.51;46.88
40920;BME280;26652;50.280;19.026;2023-03-16T10:50:32;98941.19;;;9.48;47.86
40920;BME280;26652;50.280;19.026;2023-03-16T10:52:46;98934.66;;;9.54;47.90
40920;BME280;26652;50.280;19.026;2023-03-16T10:55:15;98935.94;;;9.50;47.79
40920;BME280;26652;50.280;19.026;2023-03-16T10:59:50;98937.03;;;10.21;46.64
40920;BME280;26652;50.280;19.026;2023-03-16T11:02:32;98938.94;;;10.66;46.65
40920;BME280;26652;50.280;19.026;2023-03-16T11:04:49;98938.75;;;10.36;45.50
40920;BME280;26652;50.280;19.026;2023-03-16T11:07:07;98935.53;;;10.42;45.39
40920;BME280;26652;50.280;19.026;2023-03-16T11:09:40;98936.38;;;10.19;45.74
40920;BME280;26652;50.280;19.026;2023-03-16T11:11:53;98934.87;;;10.48;46.87
40920;BME280;26652;50.280;19.026;2023-03-16T11:14:14;98927.22;;;10.57;45.75
40920;BME280;26652;50.280;19.026;2023-03-16T11:17:15;98939.38;;;10.38;46.11
40920;BME280;26652;50.280;19.026;2023-03-16T11:22:04;98931.47;;;10.01;46.23
40920;BME280;26652;50.280;19.026;2023-03-16T11:24:22;98933.41;;;9.66;45.76
40920;BME280;26652;50.280;19.026;2023-03-16T11:26:41;98931.66;;;9.91;44.61
40920;BME280;26652;50.280;19.026;2023-03-16T11:28:58;98933.56;;;9.73;45.14
40920;BME280;26652;50.280;19.026;2023-03-16T11:31:47;98927.69;;;9.72;46.30
40920;BME280;26652;50.280;19.026;2023-03-16T11:33:56;98924.34;;;9.23;47.74
40920;BME280;26652;50.280;19.026;2023-03-16T11:38:41;98924.13;;;9.00;47.49
40920;BME280;26652;50.280;19.026;2023-03-16T11:41:07;98932.03;;;8.89;46.87
40920;BME280;26652;50.280;19.026;2023-03-16T11:48:56;98926.28;;;8.79;45.44
40920;BME280;26652;50.280;19.026;2023-03-16T11:56:42;98915.31;;;8.70;46.74
40920;BME280;26652;50.280;19.026;2023-03-16T12:02:31;98911.56;;;8.82;46.99
40920;BME280;26652;50.280;19.026;2023-03-16T12:10:45;98915.12;;;9.95;45.09
40920;BME280;26652;50.280;19.026;2023-03-16T12:15:41;98916.53;;;10.06;45.28
40920;BME280;26652;50.280;19.026;2023-03-16T12:17:52;98913.00;;;10.31;43.46
40920;BME280;26652;50.280;19.026;2023-03-16T12:20:20;98914.66;;;9.43;44.76
40920;BME280;26652;50.280;19.026;2023-03-16T12:22:32;98906.41;;;9.33;45.42
40920;BME280;26652;50.280;19.026;2023-03-16T12:24:45;98907.44;;;8.90;46.37
40920;BME280;26652;50.280;19.026;2023-03-16T12:26:52;98905.22;;;8.87;46.99
40920;BME280;26652;50.280;19.026;2023-03-16T12:29:29;98913.81;;;8.94;46.15
40920;BME280;26652;50.280;19.026;2023-03-16T12:31:51;98909.22;;;8.97;45.43
40920;BME280;26652;50.280;19.026;2023-03-16T12:34:28;98904.47;;;9.02;45.81
40920;BME280;26652;50.280;19.026;2023-03-16T12:44:21;98903.28;;;8.72;44.76
40920;BME280;26652;50.280;19.026;2023-03-16T12:46:55;98902.31;;;8.73;45.38
40920;BME280;26652;50.280;19.026;2023-03-16T12:49:11;98904.50;;;9.35;44.64
40920;BME280;26652;50.280;19.026;2023-03-16T12:51:16;98902.44;;;9.38;43.33
40920;BME280;26652;50.280;19.026;2023-03-16T12:53:39;98902.34;;;8.81;44.08
40920;BME280;26652;50.280;19.026;2023-03-16T12:55:49;98906.84;;;8.96;44.59